sensor_id;sensor_type;location;lat;lon;timestamp;pressure;altitude;pressure_sealevel;temperature;humidity
62011;BME280;47967;51.756;10.174;2023-01-25T05:02:08;101599.13;;;0.93;72.43
62011;BME280;47967;51.756;10.174;2023-01-25T05:06:11;101593.13;;;0.89;72.34
62011;BME280;47967;51.756;10.174;2023-01-25T05:10:14;101600.91;;;0.92;72.55
62011;BME280;47967;51.756;10.174;2023-01-25T05:14:36;101596.63;;;0.90;72.48
62011;BME280;47967;51.756;10.174;2023-01-25T05:18:41;101595.56;;;0.78;72.26
62011;BME280;47967;51.756;10.174;2023-01-25T05:22:53;101590.22;;;0.63;72.62
62011;BME280;47967;51.756;10.174;2023-01-25T05:26:56;101594.78;;;0.61;72.43
62011;BME280;47967;51.756;10.174;2023-01-25T05:31:22;101590.59;;;0.41;73.19
62011;BME280;47967;51.756;10.174;2023-01-25T05:35:26;101591.53;;;0.40;73.28
62011;BME280;47967;51.756;10.174;2023-01-25T05:39:30;101591.16;;;0.32;73.42
62011;BME280;47967;51.756;10.174;2023-01-25T05:43:33;101586.09;;;0.27;73.72
62011;BME280;47967;51.756;10.174;2023-01-25T05:47:39;101592.09;;;0.31;74.05
62011;BME280;47967;51.756;10.174;2023-01-25T05:51:44;101585.28;;;0.41;73.83
62011;BME280;47967;51.756;10.174;2023-01-25T05:55:47;101586.69;;;0.32;74.02
62011;BME280;47967;51.756;10.174;2023-01-25T05:59:51;101580.22;;;0.22;74.15
62011;BME280;47967;51.756;10.174;2023-01-25T06:03:54;101571.94;;;0.43;74.29
62011;BME280;47967;51.756;10.174;2023-01-25T06:08:00;101578.09;;;0.43;74.07
62011;BME280;47967;51.756;10.174;2023-01-25T06:12:19;101569.28;;;0.43;74.06
62011;BME280;47967;51.756;10.174;2023-01-25T06:16:21;101563.31;;;0.54;74.49
62011;BME280;47967;51.756;10.174;2023-01-25T06:21:00;101555.97;;;0.59;74.36
62011;BME280;47967;51.756;10.174;2023-01-25T06:25:10;101553.69;;;0.53;74.37
62011;BME280;47967;51.756;10.174;2023-01-25T06:29:13;101555.28;;;0.55;74.34
62011;BME280;47967;51.756;10.174;2023-01-25T06:33:15;101546.75;;;0.50;74.43
62011;BME280;47967;51.756;10.174;2023-01-25T06:37:18;101549.31;;;0.52;74.54
62011;BME280;47967;51.756;10.174;2023-01-25T06:41:25;101552.06;;;0.64;74.34
62011;BME280;47967;51.756;10.174;2023-01-25T06:45:27;101544.03;;;0.66;74.51
62011;BME280;47967;51.756;10.174;2023-01-25T06:49:30;101550.28;;;0.65;74.23
62011;BME280;47967;51.756;10.174;2023-01-25T06:53:34;101550.97;;;0.69;74.36
62011;BME280;47967;51.756;10.174;2023-01-25T06:57:38;101541.19;;;0.69;74.38
62011;BME280;47967;51.756;10.174;2023-01-25T07:01:41;101545.72;;;0.67;74.30
62011;BME280;47967;51.756;10.174;2023-01-25T07:05:43;101544.72;;;0.70;74.11
62011;BME280;47967;51.756;10.174;2023-01-25T07:09:46;101539.47;;;0.68;74.24
62011;BME280;47967;51.756;10.174;2023-01-25T07:13:50;101532.66;;;0.78;74.26
62011;BME280;47967;51.756;10.174;2023-01-25T07:17:52;101535.50;;;0.75;74.38
62011;BME280;47967;51.756;10.174;2023-01-25T07:21:59;101531.63;;;0.81;74.17
62011;BME280;47967;51.756;10.174;2023-01-25T07:26:02;101520.25;;;0.93;73.95
62011;BME280;47967;51.756;10.174;2023-01-25T07:30:08;101524.63;;;0.94;73.25
62011;BME280;47967;51.756;10.174;2023-01-25T07:34:11;101522.06;;;0.93;73.09
62011;BME280;47967;51.756;10.174;2023-01-25T07:38:14;101518.53;;;0.92;73.42
62011;BME280;47967;51.756;10.174;2023-01-25T07:42:17;101518.34;;;0.95;73.42
62011;BME280;47967;51.756;10.174;2023-01-25T07:46:41;101524.91;;;0.90;73.42
62011;BME280;47967;51.756;10.174;2023-01-25T07:50:44;101521.16;;;0.78;73.47
62011;BME280;47967;51.756;10.174;2023-01-25T07:54:49;101530.00;;;0.78;73.87
62011;BME280;47967;51.756;10.174;2023-01-25T07:58:53;101522.41;;;0.72;74.37
62011;BME280;47967;51.756;10.174;2023-01-25T08:02:57;101524.69;;;0.78;75.14
62011;BME280;47967;51.756;10.174;2023-01-25T08:06:59;101532.38;;;0.98;74.59
62011;BME280;47967;51.756;10.174;2023-01-25T08:11:07;101541.31;;;1.11;74.16
62011;BME280;47967;51.756;10.174;2023-01-25T08:15:11;101532.41;;;1.12;74.51
62011;BME280;47967;51.756;10.174;2023-01-25T08:19:15;101534.97;;;1.14;74.36
62011;BME280;47967;51.756;10.174;2023-01-25T08:23:20;101533.56;;;1.22;74.28
62011;BME280;47967;51.756;10.174;2023-01-25T08:27:23;101526.59;;;1.34;74.45
62011;BME280;47967;51.756;10.174;2023-01-25T08:31:27;101526.41;;;1.37;74.29
62011;BME280;47967;51.756;10.174;2023-01-25T08:35:32;101530.41;;;1.44;74.20
62011;BME280;47967;51.756;10.174;2023-01-25T08:39:35;101523.91;;;1.63;74.01
62011;BME280;47967;51.756;10.174;2023-01-25T08:43:38;101515.47;;;1.56;73.64
62011;BME280;47967;51.756;10.174;2023-01-25T08:47:41;101519.91;;;1.56;74.35
62011;BME280;47967;51.756;10.174;2023-01-25T08:51:45;101512.19;;;1.66;74.69
62011;BME280;47967;51.756;10.174;2023-01-25T08:55:48;101501.41;;;1.54;75.09
62011;BME280;47967;51.756;10.174;2023-01-25T08:59:51;101510.31;;;1.68;75.22
62011;BME280;47967;51.756;10.174;2023-01-25T09:03:53;101495.53;;;1.76;75.38
62011;BME280;47967;51.756;10.174;2023-01-25T09:07:58;101488.56;;;1.88;75.38
62011;BME280;47967;51.756;10.174;2023-01-25T09:12:01;101490.59;;;1.98;74.92
62011;BME280;47967;51.756;10.174;2023-01-25T09:16:05;101484.25;;;2.00;74.51
62011;BME280;47967;51.756;10.174;2023-01-25T09:20:09;101481.91;;;2.08;74.53
62011;BME280;47967;51.756;10.174;2023-01-25T09:24:13;101478.53;;;2.19;74.03
62011;BME280;47967;51.756;10.174;2023-01-25T09:28:16;101479.41;;;1.92;73.82
62011;BME280;47967;51.756;10.174;2023-01-25T09:32:18;101481.25;;;1.92;74.12
62011;BME280;47967;51.756;10.174;2023-01-25T09:36:26;101480.63;;;2.01;74.04
62011;BME280;47967;51.756;10.174;2023-01-25T09:40:36;101468.81;;;2.05;74.60
62011;BME280;47967;51.756;10.174;2023-01-25T09:44:51;101468.31;;;2.13;74.21
62011;BME280;47967;51.756;10.174;2023-01-25T09:49:02;101459.53;;;1.98;75.26
62011;BME280;47967;51.756;10.174;2023-01-25T09:53:19;101453.28;;;2.12;75.94
62011;BME280;47967;51.756;10.174;2023-01-25T09:57:29;101461.25;;;2.12;76.04
62011;BME280;47967;51.756;10.174;2023-01-25T10:01:40;101454.88;;;2.15;76.16
62011;BME280;47967;51.756;10.174;2023-01-25T10:05:47;101452.66;;;2.34;74.88
62011;BME280;47967;51.756;10.174;2023-01-25T10:09:56;101452.28;;;2.40;74.11
62011;BME280;47967;51.756;10.174;2023-01-25T10:14:11;101446.63;;;2.32;74.31
62011;BME280;47967;51.756;10.174;2023-01-25T10:18:19;101434.63;;;2.12;75.52
62011;BME280;47967;51.756;10.174;2023-01-25T10:22:27;101418.44;;;2.02;75.98
62011;BME280;47967;51.756;10.174;2023-01-25T10:26:32;101410.97;;;1.95;75.90
62011;BME280;47967;51.756;10.174;2023-01-25T10:30:40;101417.78;;;1.86;76.29
62011;BME280;47967;51.756;10.174;2023-01-25T10:34:48;101407.78;;;1.89;76.90
62011;BME280;47967;51.756;10.174;2023-01-25T10:38:57;101393.22;;;2.21;76.54
62011;BME280;47967;51.756;10.174;2023-01-25T10:43:06;101388.66;;;2.10;76.41
62011;BME280;47967;51.756;10.174;2023-01-25T10:47:23;101388.97;;;2.05;76.34
62011;BME280;47967;51.756;10.174;2023-01-25T10:51:30;101382.53;;;1.95;76.69
62011;BME280;47967;51.756;10.174;2023-01-25T10:55:33;101371.25;;;1.79;76.66
62011;BME280;47967;51.756;10.174;2023-01-25T10:59:35;101360.47;;;1.67;77.30
62011;BME280;47967;51.756;10.174;2023-01-25T11:03:41;101358.06;;;1.90;76.89
62011;BME280;47967;51.756;10.174;2023-01-25T11:07:45;101346.59;;;2.15;75.96
62011;BME280;47967;51.756;10.174;2023-01-25T11:11:52;101336.00;;;2.52;75.21
62011;BME280;47967;51.756;10.174;2023-01-25T11:20:33;101321.44;;;2.32;75.22
62011;BME280;47967;51.756;10.174;2023-01-25T11:24:36;101313.22;;;2.48;74.98
62011;BME280;47967;51.756;10.174;2023-01-25T11:28:39;101316.19;;;2.56;74.38
62011;BME280;47967;51.756;10.174;2023-01-25T11:32:42;101307.66;;;2.64;74.34
62011;BME280;47967;51.756;10.174;2023-01-25T11:37:00;101295.41;;;2.49;74.70
62011;BME280;47967;51.756;10.174;2023-01-25T11:41:11;101285.50;;;2.51;74.89
62011;BME280;47967;51.756;10.174;2023-01-25T11:49:53;101271.19;;;1.89;75.75
62011;BME280;47967;51.756;10.174;2023-01-25T11:54:16;101268.66;;;2.00;76.05
62011;BME280;47967;51.756;10.174;2023-01-25T11:58:37;101252.03;;;1.97;76.42
62011;BME280;47967;51.756;10.174;2023-01-25T12:02:57;101252.00;;;2.10;76.23
62011;BME280;47967;51.756;10.174;2023-01-25T12:07:09;101247.19;;;2.15;75.87
62011;BME280;47967;51.756;10.174;2023-01-25T12:11:30;101230.03;;;2.32;75.26
62011;BME280;47967;51.756;10.174;2023-01-25T12:15:51;101227.53;;;2.04;75.70
62011;BME280;47967;51.756;10.174;2023-01-25T12:24:41;101196.72;;;2.26;75.52
62011;BME280;47967;51.756;10.174;2023-01-25T12:28:49;101191.66;;;2.10;75.58
62011;BME280;47967;51.756;10.174;2023-01-25T12:32:55;101182.72;;;1.98;75.25
62011;BME280;47967;51.756;10.174;2023-01-25T12:37:16;101188.69;;;1.89;76.24
62011;BME280;47967;51.756;10.174;2023-01-25T12:41:26;101182.28;;;1.91;76.13
62011;BME280;47967;51.756;10.174;2023-01-25T12:45:34;101174.75;;;1.59;76.50
62011;BME280;47967;51.756;10.174;2023-01-25T12:49:42;101155.72;;;1.79;76.51
62011;BME280;47967;51.756;10.174;2023-01-25T12:53:46;101152.72;;;1.83;76.41
62011;BME280;47967;51.756;10.174;2023-01-25T12:57:54;101139.31;;;1.85;76.07
62011;BME280;47967;51.756;10.174;2023-01-25T13:02:07;101126.59;;;2.01;75.95
62011;BME280;47967;51.756;10.174;2023-01-25T13:06:16;101115.09;;;2.01;75.92
62011;BME280;47967;51.756;10.174;2023-01-25T13:10:24;101117.69;;;1.89;75.48
62011;BME280;47967;51.756;10.174;2023-01-25T13:14:29;101106.03;;;1.66;76.27
62011;BME280;47967;51.756;10.174;2023-01-25T13:18:37;101100.78;;;1.78;75.99
62011;BME280;47967;51.756;10.174;2023-01-25T13:22:59;101101.16;;;1.60;76.56
62011;BME280;47967;51.756;10.174;2023-01-25T13:27:23;101094.00;;;1.48;77.58
62011;BME280;47967;51.756;10.174;2023-01-25T13:31:43;101076.00;;;1.77;77.27
62011;BME280;47967;51.756;10.174;2023-01-25T13:35:54;101076.81;;;1.90;77.28
62011;BME280;47967;51.756;10.174;2023-01-25T13:39:57;101067.16;;;1.76;76.85
62011;BME280;47967;51.756;10.174;2023-01-25T13:44:19;101058.19;;;1.90;76.83
62011;BME280;47967;51.756;10.174;2023-01-25T13:48:33;101053.34;;;1.71;76.55
62011;BME280;47967;51.756;10.174;2023-01-25T13:52:55;101052.38;;;1.72;77.39
62011;BME280;47967;51.756;10.174;2023-01-25T13:57:04;101047.31;;;1.56;77.21
62011;BME280;47967;51.756;10.174;2023-01-25T14:01:13;101051.19;;;1.39;77.67
62011;BME280;47967;51.756;10.174;2023-01-25T14:05:18;101047.06;;;1.22;78.43
62011;BME280;47967;51.756;10.174;2023-01-25T14:09:23;101040.66;;;1.12;78.89
62011;BME280;47967;51.756;10.174;2023-01-25T14:13:25;101036.00;;;1.03;79.45
62011;BME280;47967;51.756;10.174;2023-01-25T14:17:28;101029.81;;;1.15;79.34
62011;BME280;47967;51.756;10.174;2023-01-25T14:21:30;101027.25;;;1.26;79.26
62011;BME280;47967;51.756;10.174;2023-01-25T14:25:39;101016.06;;;1.34;79.34
62011;BME280;47967;51.756;10.174;2023-01-25T14:29:47;101014.59;;;1.43;78.79
62011;BME280;47967;51.756;10.174;2023-01-25T14:33:50;101016.41;;;1.67;78.63
62011;BME280;47967;51.756;10.174;2023-01-25T14:37:58;101020.38;;;1.61;78.13
62011;BME280;47967;51.756;10.174;2023-01-25T14:42:03;101015.97;;;1.73;77.71
62011;BME280;47967;51.756;10.174;2023-01-25T14:46:19;101009.81;;;1.72;77.78
62011;BME280;47967;51.756;10.174;2023-01-25T14:50:31;101004.25;;;1.75;78.05
62011;BME280;47967;51.756;10.174;2023-01-25T14:54:36;101000.97;;;1.72;78.09
62011;BME280;47967;51.756;10.174;2023-01-25T14:58:47;101000.47;;;1.67;77.56
62011;BME280;47967;51.756;10.174;2023-01-25T15:03:01;100983.53;;;1.68;77.93
62011;BME280;47967;51.756;10.174;2023-01-25T15:07:32;100982.09;;;1.64;78.05
62011;BME280;47967;51.756;10.174;2023-01-25T15:11:38;100976.00;;;1.62;78.13
62011;BME280;47967;51.756;10.174;2023-01-25T15:15:52;100973.03;;;1.66;77.96
62011;BME280;47967;51.756;10.174;2023-01-25T15:19:57;100971.53;;;1.62;78.28
62011;BME280;47967;51.756;10.174;2023-01-25T15:24:02;100966.44;;;1.59;78.02
62011;BME280;47967;51.756;10.174;2023-01-25T15:28:12;100969.88;;;1.48;78.77
62011;BME280;47967;51.756;10.174;2023-01-25T15:32:19;100956.94;;;1.31;79.00
62011;BME280;47967;51.756;10.174;2023-01-25T15:36:22;100953.50;;;1.41;79.31
62011;BME280;47967;51.756;10.174;2023-01-25T15:40:25;100947.06;;;1.33;79.30
62011;BME280;47967;51.756;10.174;2023-01-25T15:44:27;100944.41;;;1.33;78.81
62011;BME280;47967;51.756;10.174;2023-01-25T15:48:32;100940.22;;;1.41;79.44
62011;BME280;47967;51.756;10.174;2023-01-25T15:52:35;100941.53;;;1.36;79.40
62011;BME280;47967;51.756;10.174;2023-01-25T15:56:39;100938.34;;;1.31;79.56
62011;BME280;47967;51.756;10.174;2023-01-25T16:00:43;100937.13;;;0.98;79.76
62011;BME280;47967;51.756;10.174;2023-01-25T16:04:46;100926.75;;;0.82;80.87
62011;BME280;47967;51.756;10.174;2023-01-25T16:08:49;100926.25;;;0.63;81.12
62011;BME280;47967;51.756;10.174;2023-01-25T16:12:52;100927.19;;;0.62;81.29
62011;BME280;47967;51.756;10.174;2023-01-25T16:16:57;100937.47;;;0.67;81.66
62011;BME280;47967;51.756;10.174;2023-01-25T16:21:03;100944.59;;;0.54;81.40
62011;BME280;47967;51.756;10.174;2023-01-25T16:25:06;100940.69;;;0.46;81.52
62011;BME280;47967;51.756;10.174;2023-01-25T16:29:10;100925.63;;;0.60;81.86
62011;BME280;47967;51.756;10.174;2023-01-25T16:33:13;100926.66;;;0.57;81.69
62011;BME280;47967;51.756;10.174;2023-01-25T16:37:17;100928.75;;;0.78;81.71
62011;BME280;47967;51.756;10.174;2023-01-25T16:41:19;100919.72;;;0.93;81.10
62011;BME280;47967;51.756;10.174;2023-01-25T16:45:22;100916.19;;;1.06;81.01
62011;BME280;47967;51.756;10.174;2023-01-25T16:49:25;100907.78;;;1.12;80.59
62011;BME280;47967;51.756;10.174;2023-01-25T16:53:29;100907.25;;;1.07;80.29
62011;BME280;47967;51.756;10.174;2023-01-25T16:57:32;100906.63;;;0.90;80.05
62011;BME280;47967;51.756;10.174;2023-01-25T17:01:34;100901.88;;;0.83;80.33
62011;BME280;47967;51.756;10.174;2023-01-25T17:05:38;100903.47;;;0.85;80.67
62011;BME280;47967;51.756;10.174;2023-01-25T17:09:42;100896.13;;;0.89;80.81
62011;BME280;47967;51.756;10.174;2023-01-25T17:13:46;100890.50;;;0.93;80.42
62011;BME280;47967;51.756;10.174;2023-01-25T17:17:49;100885.00;;;0.71;80.35
62011;BME280;47967;51.756;10.174;2023-01-25T17:21:52;100878.00;;;0.70;81.03
62011;BME280;47967;51.756;10.174;2023-01-25T17:25:55;100877.78;;;0.86;81.21
62011;BME280;47967;51.756;10.174;2023-01-25T17:29:58;100863.53;;;0.87;81.22
62011;BME280;47967;51.756;10.174;2023-01-25T17:34:03;100865.75;;;0.80;81.27
62011;BME280;47967;51.756;10.174;2023-01-25T17:38:06;100874.47;;;0.82;80.82
62011;BME280;47967;51.756;10.174;2023-01-25T17:42:10;100854.94;;;0.83;81.29
62011;BME280;47967;51.756;10.174;2023-01-25T17:46:19;100864.88;;;0.92;81.08
62011;BME280;47967;51.756;10.174;2023-01-25T17:50:22;100849.19;;;0.89;80.68
62011;BME280;47967;51.756;10.174;2023-01-25T17:54:25;100848.72;;;0.95;80.76
62011;BME280;47967;51.756;10.174;2023-01-25T17:58:30;100848.81;;;0.94;80.64
62011;BME280;47967;51.756;10.174;2023-01-25T18:02:32;100836.72;;;0.90;80.71
62011;BME280;47967;51.756;10.174;2023-01-25T18:06:35;100845.22;;;0.95;80.97
62011;BME280;47967;51.756;10.174;2023-01-25T18:10:38;100838.75;;;0.86;80.83
62011;BME280;47967;51.756;10.174;2023-01-25T18:14:42;100816.66;;;0.86;81.25
62011;BME280;47967;51.756;10.174;2023-01-25T18:18:45;100823.88;;;0.84;81.24
62011;BME280;47967;51.756;10.174;2023-01-25T18:22:47;100817.03;;;1.05;81.31
62011;BME280;47967;51.756;10.174;2023-01-25T18:26:50;100804.69;;;1.04;80.86
62011;BME280;47967;51.756;10.174;2023-01-25T18:30:59;100804.56;;;1.06;80.88
62011;BME280;47967;51.756;10.174;2023-01-25T18:35:03;100799.25;;;1.06;80.56
62011;BME280;47967;51.756;10.174;2023-01-25T18:39:05;100797.84;;;1.13;80.77
62011;BME280;47967;51.756;10.174;2023-01-25T18:43:09;100791.41;;;1.04;80.49
62011;BME280;47967;51.756;10.174;2023-01-25T18:47:13;100785.88;;;0.70;80.95
62011;BME280;47967;51.756;10.174;2023-01-25T18:51:18;100781.66;;;0.55;81.75
62011;BME280;47967;51.756;10.174;2023-01-25T18:55:23;100779.97;;;0.54;82.40
62011;BME280;47967;51.756;10.174;2023-01-25T18:59:27;100768.50;;;0.66;82.13
62011;BME280;47967;51.756;10.174;2023-01-25T19:03:32;100765.47;;;0.71;81.59
62011;BME280;47967;51.756;10.174;2023-01-25T19:07:34;100759.63;;;0.78;81.65
62011;BME280;47967;51.756;10.174;2023-01-25T19:11:37;100758.44;;;0.83;81.00
62011;BME280;47967;51.756;10.174;2023-01-25T19:15:39;100766.84;;;0.76;81.24
62011;BME280;47967;51.756;10.174;2023-01-25T19:19:43;100774.50;;;0.81;81.14
62011;BME280;47967;51.756;10.174;2023-01-25T19:23:46;100756.78;;;0.69;81.27
62011;BME280;47967;51.756;10.174;2023-01-25T19:27:49;100765.28;;;0.74;81.39
62011;BME280;47967;51.756;10.174;2023-01-25T19:31:51;100770.63;;;0.85;81.19
62011;BME280;47967;51.756;10.174;2023-01-25T19:35:58;100766.91;;;0.88;81.06
62011;BME280;47967;51.756;10.174;2023-01-25T19:40:01;100764.53;;;0.72;80.73
62011;BME280;47967;51.756;10.174;2023-01-25T19:44:04;100759.34;;;0.57;80.61
62011;BME280;47967;51.756;10.174;2023-01-25T19:48:07;100749.25;;;0.25;81.14
62011;BME280;47967;51.756;10.174;2023-01-25T19:52:11;100754.47;;;0.01;82.13
62011;BME280;47967;51.756;10.174;2023-01-25T19:56:15;100748.84;;;0.19;82.88
62011;BME280;47967;51.756;10.174;2023-01-25T20:00:18;100723.75;;;0.36;83.09
62011;BME280;47967;51.756;10.174;2023-01-25T20:04:22;100723.94;;;0.45;82.58
62011;BME280;47967;51.756;10.174;2023-01-25T20:08:28;100724.63;;;0.60;82.03
62011;BME280;47967;51.756;10.174;2023-01-25T20:12:30;100723.56;;;0.63;82.01
62011;BME280;47967;51.756;10.174;2023-01-25T20:16:34;100714.59;;;0.77;81.88
62011;BME280;47967;51.756;10.174;2023-01-25T20:20:36;100707.78;;;0.73;81.25
62011;BME280;47967;51.756;10.174;2023-01-25T20:24:40;100712.59;;;0.68;81.49
62011;BME280;47967;51.756;10.174;2023-01-25T20:28:45;100713.31;;;0.45;81.21
62011;BME280;47967;51.756;10.174;2023-01-25T20:32:48;100711.81;;;0.54;82.01
62011;BME280;47967;51.756;10.174;2023-01-25T20:36:50;100707.44;;;0.53;81.47
62011;BME280;47967;51.756;10.174;2023-01-25T20:40:58;100702.09;;;0.66;80.97
62011;BME280;47967;51.756;10.174;2023-01-25T20:45:01;100692.91;;;0.46;80.58
62011;BME280;47967;51.756;10.174;2023-01-25T20:49:04;100683.41;;;0.30;80.74
62011;BME280;47967;51.756;10.174;2023-01-25T20:53:07;100678.91;;;0.44;81.05
62011;BME280;47967;51.756;10.174;2023-01-25T20:57:11;100673.34;;;0.60;80.73
62011;BME280;47967;51.756;10.174;2023-01-25T21:01:16;100663.44;;;0.62;80.66
62011;BME280;47967;51.756;10.174;2023-01-25T21:05:18;100672.31;;;0.74;80.30
62011;BME280;47967;51.756;10.174;2023-01-25T21:09:21;100667.00;;;0.74;79.95
62011;BME280;47967;51.756;10.174;2023-01-25T21:13:28;100658.28;;;0.72;80.25
62011;BME280;47967;51.756;10.174;2023-01-25T21:17:30;100655.00;;;0.68;80.37
62011;BME280;47967;51.756;10.174;2023-01-25T21:21:33;100656.38;;;0.74;80.10
62011;BME280;47967;51.756;10.174;2023-01-25T21:25:36;100664.22;;;0.75;80.13
62011;BME280;47967;51.756;10.174;2023-01-25T21:29:40;100648.56;;;0.84;80.09
62011;BME280;47967;51.756;10.174;2023-01-25T21:33:43;100658.22;;;0.85;79.91
62011;BME280;47967;51.756;10.174;2023-01-25T21:37:45;100638.91;;;0.83;80.06
62011;BME280;47967;51.756;10.174;2023-01-25T21:41:50;100633.91;;;0.78;79.92
62011;BME280;47967;51.756;10.174;2023-01-25T21:45:56;100627.03;;;0.75;80.17
62011;BME280;47967;51.756;10.174;2023-01-25T21:50:15;100633.47;;;0.84;80.38
62011;BME280;47967;51.756;10.174;2023-01-25T21:54:37;100633.06;;;0.66;80.15
62011;BME280;47967;51.756;10.174;2023-01-25T21:58:40;100635.56;;;0.19;80.68
